createdAt,value
2022-08-26T00:00:16.162Z,31.05
2022-08-26T00:03:08.458Z,36.45
2022-08-26T00:05:42.647Z,30.58
2022-08-26T00:08:15.933Z,26.42
2022-08-26T00:10:48.972Z,42.20
2022-08-26T00:13:22.071Z,30.65
2022-08-26T00:15:55.067Z,39.35
2022-08-26T00:18:28.533Z,36.65
2022-08-26T00:21:06.226Z,27.33
2022-08-26T00:23:39.416Z,32.95
2022-08-26T00:26:14.372Z,30.83
2022-08-26T00:28:46.968Z,31.70
2022-08-26T00:31:20.891Z,38.08
2022-08-26T00:33:54.932Z,33.22
2022-08-26T00:36:29.780Z,36.25
2022-08-26T00:39:02.720Z,27.73
2022-08-26T00:41:38.514Z,28.92
2022-08-26T00:44:11.917Z,35.47
2022-08-26T00:46:55.644Z,42.38
2022-08-26T00:49:42.288Z,36.65
2022-08-26T00:52:18.569Z,26.00
2022-08-26T00:55:20.352Z,30.63
2022-08-26T00:57:54.081Z,26.70
2022-08-26T01:00:29.279Z,32.45
2022-08-26T01:03:03.313Z,32.03
2022-08-26T01:05:41.203Z,28.67
2022-08-26T01:08:14.379Z,24.95
2022-08-26T01:10:47.056Z,33.70
2022-08-26T01:13:20.206Z,33.85
2022-08-26T01:15:56.497Z,26.25
2022-08-26T01:18:29.553Z,39.80
2022-08-26T01:21:26.194Z,31.10
2022-08-26T01:24:00.233Z,33.72
2022-08-26T01:26:42.595Z,28.67
2022-08-26T01:29:19.198Z,24.80
2022-08-26T01:31:56.682Z,24.33
2022-08-26T01:34:33.244Z,32.63
2022-08-26T01:37:13.882Z,25.50
2022-08-26T01:39:54.809Z,34.90
2022-08-26T01:42:28.534Z,36.45
2022-08-26T01:45:12.633Z,38.97
2022-08-26T01:47:48.397Z,31.02
2022-08-26T01:50:30.331Z,36.40
2022-08-26T01:53:08.772Z,28.52
2022-08-26T01:55:49.087Z,28.98
2022-08-26T01:58:26.393Z,39.60
2022-08-26T02:01:00.536Z,27.58
2022-08-26T02:03:39.270Z,27.45
2022-08-26T02:08:51.837Z,18.67
2022-08-26T02:11:24.750Z,28.80
2022-08-26T02:14:05.485Z,30.60
2022-08-26T02:16:42.327Z,25.10
2022-08-26T02:19:20.454Z,22.55
2022-08-26T02:21:54.640Z,28.10
2022-08-26T02:24:30.401Z,28.25
2022-08-26T02:27:04.228Z,23.10
2022-08-26T02:29:43.593Z,29.95
2022-08-26T02:32:18.425Z,26.80
2022-08-26T02:35:20.556Z,32.95
2022-08-26T02:37:53.841Z,22.55
2022-08-26T02:40:30.756Z,24.20
2022-08-26T02:43:04.952Z,27.58
2022-08-26T02:45:41.984Z,20.45
2022-08-26T02:48:18.848Z,18.48
2022-08-26T02:50:51.517Z,32.90
2022-08-26T02:53:25.531Z,25.67
2022-08-26T02:55:58.280Z,25.20
2022-08-26T02:58:33.331Z,23.65
2022-08-26T03:01:06.685Z,19.45
2022-08-26T03:03:39.400Z,21.52
2022-08-26T03:06:11.873Z,21.48
2022-08-26T03:08:44.927Z,20.20
2022-08-26T03:11:18.762Z,22.30
2022-08-26T03:13:51.575Z,23.02
2022-08-26T03:16:24.545Z,27.48
2022-08-26T03:19:08.226Z,25.08
2022-08-26T03:21:40.904Z,24.38
2022-08-26T03:24:14.340Z,22.35
2022-08-26T03:26:52.447Z,23.77
2022-08-26T03:29:44.199Z,21.48
2022-08-26T03:32:22.138Z,21.60
2022-08-26T03:35:00.495Z,17.50
2022-08-26T03:37:33.011Z,21.85
2022-08-26T03:40:10.019Z,20.80
2022-08-26T03:42:44.454Z,24.88
2022-08-26T03:45:19.406Z,20.70
2022-08-26T03:47:52.441Z,20.35
2022-08-26T03:50:26.689Z,23.48
2022-08-26T03:52:59.514Z,21.30
2022-08-26T03:55:33.510Z,23.13
2022-08-26T03:58:06.436Z,19.02
2022-08-26T04:00:40.609Z,19.00
2022-08-26T04:03:33.318Z,23.48
2022-08-26T04:06:06.680Z,20.58
2022-08-26T04:08:39.464Z,12.07
2022-08-26T04:11:21.729Z,16.40
2022-08-26T04:13:54.657Z,14.50
2022-08-26T04:16:29.435Z,19.98
2022-08-26T04:19:02.137Z,18.90
2022-08-26T04:21:35.656Z,27.95
2022-08-26T04:24:12.106Z,19.85
2022-08-26T04:26:45.069Z,21.15
2022-08-26T04:29:24.081Z,15.98
2022-08-26T04:31:57.581Z,16.58
2022-08-26T04:34:30.209Z,20.83
2022-08-26T04:37:03.716Z,21.95
2022-08-26T04:39:38.335Z,19.38
2022-08-26T04:42:11.309Z,21.17
2022-08-26T04:44:43.873Z,22.10
2022-08-26T04:47:16.624Z,26.92
2022-08-26T04:49:55.453Z,20.63
2022-08-26T04:52:28.250Z,24.08
2022-08-26T04:55:00.788Z,19.90
2022-08-26T04:57:33.783Z,15.02
2022-08-26T05:00:08.415Z,23.80
2022-08-26T05:02:41.582Z,19.35
2022-08-26T05:05:15.644Z,24.20
2022-08-26T05:07:50.825Z,22.60
2022-08-26T05:10:24.012Z,20.05
2022-08-26T05:13:00.243Z,17.02
2022-08-26T05:15:33.870Z,21.63
2022-08-26T05:18:08.063Z,16.90
2022-08-26T05:20:43.238Z,19.27
2022-08-26T05:23:16.889Z,22.38
2022-08-26T05:25:53.629Z,21.33
2022-08-26T05:28:30.188Z,17.40
2022-08-26T05:31:21.352Z,11.68
2022-08-26T05:33:57.066Z,17.05
2022-08-26T05:36:32.054Z,24.83
2022-08-26T05:39:06.180Z,20.17
2022-08-26T05:41:41.875Z,12.93
2022-08-26T05:44:18.803Z,13.68
2022-08-26T05:46:51.947Z,21.65
2022-08-26T05:49:26.332Z,18.02
2022-08-26T05:51:59.579Z,20.95
2022-08-26T05:54:34.883Z,13.27
2022-08-26T05:57:07.458Z,26.85
2022-08-26T05:59:40.270Z,15.10
2022-08-26T06:02:14.539Z,12.63
2022-08-26T06:04:47.521Z,11.82
2022-08-26T06:07:40.940Z,13.02
2022-08-26T06:10:31.571Z,17.90
2022-08-26T06:13:09.380Z,14.98
2022-08-26T06:15:46.984Z,12.63
2022-08-26T06:18:34.788Z,17.98
2022-08-26T06:21:29.614Z,19.70
2022-08-26T06:24:30.201Z,13.48
2022-08-26T06:27:09.609Z,8.38
2022-08-26T06:29:45.048Z,13.40
2022-08-26T06:32:18.238Z,7.35
2022-08-26T06:34:51.146Z,11.13
2022-08-26T06:37:24.093Z,11.13
2022-08-26T06:39:56.687Z,13.45
2022-08-26T06:42:30.489Z,14.15
2022-08-26T06:45:03.850Z,9.20
2022-08-26T06:47:37.429Z,12.48
2022-08-26T06:50:10.114Z,9.63
2022-08-26T06:52:48.498Z,8.90
2022-08-26T06:55:26.961Z,8.63
2022-08-26T06:58:00.029Z,6.50
2022-08-26T07:00:33.766Z,12.50
2022-08-26T07:03:08.012Z,9.35
2022-08-26T07:05:40.819Z,11.75
2022-08-26T07:08:13.742Z,10.57
2022-08-26T07:10:46.292Z,8.02
2022-08-26T07:13:29.953Z,7.55
2022-08-26T07:16:08.882Z,11.23
2022-08-26T07:18:43.166Z,12.23
2022-08-26T07:21:18.263Z,8.43
2022-08-26T07:24:01.642Z,8.63
2022-08-26T07:26:34.450Z,9.45
2022-08-26T07:29:07.328Z,9.18
2022-08-26T07:31:42.281Z,9.95
2022-08-26T07:34:16.419Z,13.15
2022-08-26T07:36:51.745Z,9.43
2022-08-26T07:39:25.620Z,16.60
2022-08-26T07:41:58.372Z,9.27
2022-08-26T07:44:35.215Z,11.07
2022-08-26T07:47:10.512Z,11.88
2022-08-26T07:49:58.763Z,12.35
2022-08-26T07:52:31.604Z,5.97
2022-08-26T07:55:07.536Z,13.98
2022-08-26T07:57:40.615Z,8.93
2022-08-26T08:00:16.664Z,13.20
2022-08-26T08:02:52.468Z,10.80
2022-08-26T08:05:33.500Z,11.20
2022-08-26T08:08:26.775Z,8.63
2022-08-26T08:11:01.532Z,9.05
2022-08-26T08:13:34.144Z,9.85
2022-08-26T08:16:12.441Z,11.30
2022-08-26T08:18:45.857Z,8.27
2022-08-26T08:21:22.035Z,9.35
2022-08-26T08:23:57.897Z,9.35
2022-08-26T08:26:30.783Z,11.57
2022-08-26T08:29:04.136Z,7.32
2022-08-26T08:34:29.758Z,6.72
2022-08-26T08:37:03.665Z,17.70
2022-08-26T08:39:38.958Z,13.48
2022-08-26T08:42:31.021Z,13.55
2022-08-26T08:45:17.117Z,11.23
2022-08-26T08:47:57.257Z,10.82
2022-08-26T08:50:49.065Z,12.93
2022-08-26T08:53:37.631Z,13.63
2022-08-26T08:56:31.826Z,11.85
2022-08-26T08:59:14.191Z,17.48
2022-08-26T09:01:54.128Z,6.95
2022-08-26T09:04:49.739Z,11.40
2022-08-26T09:07:36.581Z,7.55
2022-08-26T09:10:24.783Z,7.72
2022-08-26T09:12:57.862Z,13.75
2022-08-26T09:15:50.734Z,14.40
2022-08-26T09:18:59.286Z,7.18
2022-08-26T09:21:33.146Z,9.47
2022-08-26T09:24:06.084Z,6.78
2022-08-26T09:26:39.025Z,6.85
2022-08-26T09:29:34.048Z,3.83
2022-08-26T09:32:24.485Z,10.18
2022-08-26T09:35:01.424Z,8.70
2022-08-26T09:40:24.830Z,12.98
2022-08-26T09:43:11.813Z,7.13
2022-08-26T09:45:51.115Z,11.82
2022-08-26T09:48:36.182Z,8.88
2022-08-26T09:51:23.738Z,6.07
2022-08-26T09:54:01.929Z,11.27
2022-08-26T09:56:37.542Z,10.05
2022-08-26T09:59:11.215Z,5.72
2022-08-26T10:01:44.947Z,16.35
2022-08-26T10:04:25.065Z,11.35
2022-08-26T10:07:08.256Z,28.70
2022-08-26T10:09:43.432Z,4.18
2022-08-26T10:12:20.587Z,7.93
2022-08-26T10:14:59.186Z,10.15
2022-08-26T10:17:42.367Z,14.88
2022-08-26T10:20:22.743Z,8.63
2022-08-26T10:23:18.075Z,12.68
2022-08-26T10:26:09.658Z,7.50
2022-08-26T10:28:52.268Z,11.27
2022-08-26T10:31:38.325Z,15.10
2022-08-26T10:34:14.193Z,17.63
2022-08-26T10:37:13.604Z,5.65
2022-08-26T10:40:08.103Z,15.68
2022-08-26T10:42:50.458Z,11.38
2022-08-26T10:45:28.524Z,7.75
2022-08-26T10:48:17.343Z,10.18
2022-08-26T10:50:51.497Z,6.97
2022-08-26T10:53:32.685Z,12.23
2022-08-26T10:56:30.825Z,13.07
2022-08-26T10:59:21.351Z,5.03
2022-08-26T11:02:03.871Z,13.93
2022-08-26T11:05:05.571Z,14.82
2022-08-26T11:07:38.087Z,6.15
2022-08-26T11:10:16.563Z,8.00
2022-08-26T11:13:07.449Z,7.95
2022-08-26T11:15:40.247Z,5.80
2022-08-26T11:18:37.071Z,8.23
2022-08-26T11:21:43.752Z,11.45
2022-08-26T11:24:44.551Z,5.88
2022-08-26T11:27:26.393Z,3.65
2022-08-26T11:30:01.810Z,9.80
2022-08-26T11:32:34.514Z,7.25
2022-08-26T11:35:10.003Z,12.15
2022-08-26T11:37:54.479Z,17.73
2022-08-26T11:40:32.225Z,12.65
2022-08-26T11:43:18.576Z,7.03
2022-08-26T11:46:07.775Z,6.57
2022-08-26T11:48:43.479Z,14.85
2022-08-26T11:51:16.007Z,9.43
2022-08-26T11:53:49.311Z,16.70
2022-08-26T11:56:31.874Z,3.30
2022-08-26T11:59:10.167Z,9.63
2022-08-26T12:01:45.694Z,17.63
2022-08-26T12:04:31.923Z,8.95
2022-08-26T12:07:06.094Z,11.55
2022-08-26T12:09:54.599Z,8.90
2022-08-26T12:12:36.020Z,14.68
2022-08-26T12:15:22.787Z,12.85
2022-08-26T12:17:55.387Z,9.20
2022-08-26T12:20:45.941Z,13.73
2022-08-26T12:23:43.989Z,13.30
2022-08-26T12:26:22.569Z,7.43
2022-08-26T12:29:09.399Z,7.25
2022-08-26T12:32:09.745Z,9.63
2022-08-26T12:34:45.305Z,13.35
2022-08-26T12:37:18.992Z,14.65
2022-08-26T12:39:52.023Z,6.65
2022-08-26T12:42:41.521Z,21.17
2022-08-26T12:48:02.197Z,6.38
2022-08-26T12:50:38.486Z,4.25
2022-08-26T12:53:11.290Z,6.72
2022-08-26T12:55:47.745Z,6.63
2022-08-26T12:58:38.354Z,13.50
2022-08-26T13:01:11.016Z,12.40
2022-08-26T13:03:45.687Z,10.73
2022-08-26T13:06:31.496Z,6.22
2022-08-26T13:09:09.087Z,10.43
2022-08-26T13:11:45.162Z,6.82
2022-08-26T13:14:23.921Z,8.57
2022-08-26T13:16:57.130Z,6.28
2022-08-26T13:19:29.992Z,11.15
2022-08-26T13:22:04.028Z,6.45
2022-08-26T13:24:40.690Z,9.15
2022-08-26T13:27:15.135Z,7.43
2022-08-26T13:29:48.359Z,4.93
2022-08-26T13:32:27.299Z,5.45
2022-08-26T13:35:00.694Z,9.57
2022-08-26T13:37:38.475Z,8.13
2022-08-26T13:40:14.474Z,10.20
2022-08-26T13:42:49.847Z,6.95
2022-08-26T13:45:55.969Z,6.25
2022-08-26T13:48:29.266Z,7.13
2022-08-26T13:51:03.309Z,10.98
2022-08-26T13:53:41.624Z,11.38
2022-08-26T13:56:15.386Z,9.65
2022-08-26T13:58:48.057Z,6.38
2022-08-26T14:01:23.282Z,10.43
2022-08-26T14:03:56.258Z,11.13
2022-08-26T14:06:29.391Z,11.57
2022-08-26T14:09:02.843Z,8.27
2022-08-26T14:11:39.122Z,6.63
2022-08-26T14:14:27.353Z,12.60
2022-08-26T14:17:01.208Z,6.38
2022-08-26T14:19:34.051Z,10.30
2022-08-26T14:22:06.957Z,12.73
2022-08-26T14:24:39.594Z,7.57
2022-08-26T14:27:13.309Z,15.25
2022-08-26T14:29:46.160Z,13.13
2022-08-26T14:32:24.744Z,10.63
2022-08-26T14:34:57.416Z,12.90
2022-08-26T14:37:30.476Z,9.90
2022-08-26T14:40:06.003Z,17.70
2022-08-26T14:42:38.984Z,8.35
2022-08-26T14:45:15.957Z,10.93
2022-08-26T14:47:50.480Z,17.42
2022-08-26T14:50:25.524Z,11.07
2022-08-26T14:53:16.683Z,9.05
2022-08-26T14:55:50.589Z,9.00
2022-08-26T14:58:23.501Z,14.35
2022-08-26T15:00:56.094Z,6.00
2022-08-26T15:03:29.209Z,9.95
2022-08-26T15:06:01.832Z,7.88
2022-08-26T15:08:36.738Z,11.85
2022-08-26T15:11:09.381Z,7.22
2022-08-26T15:13:42.232Z,16.48
2022-08-26T15:16:15.106Z,5.70
2022-08-26T15:18:48.433Z,9.25
2022-08-26T15:21:22.199Z,17.23
2022-08-26T15:23:55.119Z,12.00
2022-08-26T15:26:28.640Z,8.27
2022-08-26T15:29:04.809Z,12.40
2022-08-26T15:31:37.969Z,9.15
2022-08-26T15:34:16.338Z,9.63
2022-08-26T15:36:49.554Z,12.95
2022-08-26T15:39:22.433Z,11.07
2022-08-26T15:41:56.339Z,10.95
2022-08-26T15:44:29.577Z,12.90
2022-08-26T15:47:02.357Z,6.05
2022-08-26T15:49:35.233Z,11.55
2022-08-26T15:52:08.341Z,8.70
2022-08-26T15:54:41.218Z,12.77
2022-08-26T15:57:16.433Z,14.30
2022-08-26T16:02:27.241Z,5.55
2022-08-26T16:05:02.196Z,6.90
2022-08-26T16:07:35.000Z,10.32
2022-08-26T16:10:08.208Z,7.22
2022-08-26T16:12:40.901Z,11.60
2022-08-26T16:15:13.924Z,19.38
2022-08-26T16:17:46.575Z,5.50
2022-08-26T16:20:20.540Z,10.57
2022-08-26T16:22:53.921Z,8.88
2022-08-26T16:25:27.969Z,9.20
2022-08-26T16:28:00.720Z,11.77
2022-08-26T16:30:39.537Z,12.43
2022-08-26T16:33:13.478Z,10.48
2022-08-26T16:35:55.381Z,21.45
2022-08-26T16:38:28.108Z,9.63
2022-08-26T16:41:02.034Z,8.00
2022-08-26T16:43:35.484Z,12.88
2022-08-26T16:46:08.453Z,6.97
2022-08-26T16:48:41.405Z,7.95
2022-08-26T16:51:17.238Z,8.73
2022-08-26T16:53:51.090Z,12.93
2022-08-26T16:56:27.689Z,11.65
2022-08-26T16:59:10.644Z,14.40
2022-08-26T17:01:43.526Z,7.55
2022-08-26T17:04:17.216Z,7.63
2022-08-26T17:06:50.392Z,12.15
2022-08-26T17:09:23.104Z,6.32
2022-08-26T17:11:56.004Z,18.65
2022-08-26T17:14:28.700Z,9.00
2022-08-26T17:17:01.584Z,6.35
2022-08-26T17:19:40.707Z,13.30
2022-08-26T17:22:20.056Z,5.28
2022-08-26T17:24:52.744Z,13.23
2022-08-26T17:27:25.557Z,9.02
2022-08-26T17:29:58.213Z,7.53
2022-08-26T17:32:31.209Z,9.63
2022-08-26T17:35:05.053Z,7.30
2022-08-26T17:37:38.473Z,18.85
2022-08-26T17:40:15.455Z,17.52
2022-08-26T17:42:48.689Z,18.58
2022-08-26T17:45:21.743Z,17.35
2022-08-26T17:47:56.142Z,23.52
2022-08-26T17:50:28.805Z,15.38
2022-08-26T17:53:01.630Z,15.60
2022-08-26T17:55:34.379Z,15.60
2022-08-26T17:58:07.522Z,17.08
2022-08-26T18:00:44.237Z,7.20
2022-08-26T18:03:17.969Z,11.55
2022-08-26T18:05:52.104Z,13.00
2022-08-26T18:08:25.174Z,21.20
2022-08-26T18:10:57.774Z,12.55
2022-08-26T18:13:30.549Z,18.77
2022-08-26T18:16:06.108Z,18.23
2022-08-26T18:18:40.353Z,17.98
2022-08-26T18:21:16.477Z,17.02
2022-08-26T18:23:50.363Z,13.82
2022-08-26T18:26:32.879Z,17.98
2022-08-26T18:29:07.275Z,21.50
2022-08-26T18:31:39.867Z,13.50
2022-08-26T18:34:15.426Z,13.40
2022-08-26T18:36:48.411Z,13.13
2022-08-26T18:39:22.184Z,9.90
2022-08-26T18:41:56.211Z,17.83
2022-08-26T18:44:28.988Z,15.27
2022-08-26T18:47:01.871Z,16.08
2022-08-26T18:49:34.980Z,13.68
2022-08-26T18:52:09.316Z,17.33
2022-08-26T18:54:42.284Z,13.93
2022-08-26T18:57:14.992Z,12.18
2022-08-26T18:59:47.739Z,23.98
2022-08-26T19:02:20.456Z,14.85
2022-08-26T19:04:53.336Z,14.98
2022-08-26T19:07:25.915Z,22.88
2022-08-26T19:09:58.736Z,29.05
2022-08-26T19:12:31.863Z,16.38
2022-08-26T19:15:06.621Z,22.40
2022-08-26T19:17:39.180Z,17.17
2022-08-26T19:20:12.080Z,14.63
2022-08-26T19:22:46.061Z,23.58
2022-08-26T19:25:18.904Z,15.52
2022-08-26T19:27:52.028Z,14.80
2022-08-26T19:30:25.101Z,12.07
2022-08-26T19:33:01.385Z,12.32
2022-08-26T19:35:37.752Z,15.52
2022-08-26T19:38:10.349Z,15.68
2022-08-26T19:40:43.676Z,12.82
2022-08-26T19:43:16.280Z,18.48
2022-08-26T19:45:49.724Z,19.23
2022-08-26T19:48:22.308Z,21.15
2022-08-26T19:50:55.022Z,16.63
2022-08-26T19:53:27.590Z,15.77
2022-08-26T19:56:00.375Z,18.25
2022-08-26T19:58:33.304Z,11.32
2022-08-26T20:01:07.669Z,16.85
2022-08-26T20:03:41.378Z,19.80
2022-08-26T20:06:15.988Z,12.98
2022-08-26T20:08:50.684Z,14.70
2022-08-26T20:11:24.854Z,10.68
2022-08-26T20:13:57.441Z,12.70
2022-08-26T20:16:30.360Z,10.52
2022-08-26T20:19:21.521Z,13.55
2022-08-26T20:21:54.392Z,7.53
2022-08-26T20:24:27.864Z,14.85
2022-08-26T20:27:04.433Z,10.65
2022-08-26T20:29:41.019Z,14.27
2022-08-26T20:32:13.945Z,16.00
2022-08-26T20:34:46.763Z,12.30
2022-08-26T20:37:21.451Z,10.15
2022-08-26T20:39:55.080Z,17.83
2022-08-26T20:42:27.983Z,12.70
2022-08-26T20:45:01.446Z,20.65
2022-08-26T20:47:34.749Z,8.57
2022-08-26T20:50:08.758Z,13.20
2022-08-26T20:52:41.628Z,16.63
2022-08-26T20:55:14.451Z,8.95
2022-08-26T20:57:49.113Z,11.73
2022-08-26T21:00:26.475Z,16.92
2022-08-26T21:03:00.231Z,14.68
2022-08-26T21:05:32.905Z,13.30
2022-08-26T21:08:06.190Z,24.50
2022-08-26T21:10:39.499Z,21.48
2022-08-26T21:13:12.801Z,12.85
2022-08-26T21:15:46.137Z,10.70
2022-08-26T21:18:19.005Z,16.88
2022-08-26T21:20:54.357Z,15.90
2022-08-26T21:23:29.265Z,20.60
2022-08-26T21:26:07.992Z,14.10
2022-08-26T21:28:42.854Z,20.20
2022-08-26T21:31:18.406Z,18.30
2022-08-26T21:33:52.409Z,18.80
2022-08-26T21:36:25.497Z,17.60
2022-08-26T21:38:59.357Z,16.73
2022-08-26T21:41:31.984Z,21.48
2022-08-26T21:44:04.860Z,15.95
2022-08-26T21:46:37.564Z,21.88
2022-08-26T21:49:12.577Z,18.63
2022-08-26T21:51:47.939Z,13.57
2022-08-26T21:54:21.171Z,17.83
2022-08-26T21:56:55.284Z,16.02
2022-08-26T21:59:28.087Z,17.95
2022-08-26T22:02:00.812Z,16.33
2022-08-26T22:04:35.900Z,13.10
2022-08-26T22:07:08.581Z,18.05
2022-08-26T22:09:41.393Z,14.95
2022-08-26T22:12:18.525Z,22.52
2022-08-26T22:14:51.358Z,18.80
2022-08-26T22:17:24.041Z,12.10
2022-08-26T22:19:56.876Z,21.48
2022-08-26T22:22:30.559Z,15.05
2022-08-26T22:25:03.760Z,15.32
2022-08-26T22:27:40.474Z,16.67
2022-08-26T22:30:15.845Z,15.18
2022-08-26T22:32:48.556Z,18.60
2022-08-26T22:35:29.349Z,13.27
2022-08-26T22:38:02.468Z,14.32
2022-08-26T22:40:37.029Z,16.15
2022-08-26T22:43:09.844Z,15.20
2022-08-26T22:45:45.955Z,12.73
2022-08-26T22:48:22.468Z,20.52
2022-08-26T22:51:00.129Z,16.33
2022-08-26T22:53:32.964Z,12.55
2022-08-26T22:56:09.812Z,19.17
2022-08-26T22:58:42.557Z,20.33
2022-08-26T23:01:17.052Z,15.07
2022-08-26T23:03:49.808Z,15.70
2022-08-26T23:06:22.705Z,19.25
2022-08-26T23:08:55.317Z,15.00
2022-08-26T23:11:28.489Z,21.35
2022-08-26T23:14:06.623Z,18.90
2022-08-26T23:16:44.218Z,12.80
2022-08-26T23:19:18.892Z,16.23
2022-08-26T23:21:52.293Z,10.02
2022-08-26T23:24:24.932Z,15.30
2022-08-26T23:26:57.797Z,15.68
2022-08-26T23:29:30.472Z,12.32
2022-08-26T23:32:04.839Z,13.48
2022-08-26T23:34:55.849Z,14.63
2022-08-26T23:37:33.716Z,16.38
2022-08-26T23:40:13.367Z,12.68
2022-08-26T23:42:46.198Z,17.70
2022-08-26T23:45:20.008Z,12.82
2022-08-26T23:47:54.123Z,17.73
2022-08-26T23:50:51.238Z,18.55
2022-08-26T23:53:24.107Z,10.40
2022-08-26T23:55:56.803Z,14.48
2022-08-26T23:58:29.859Z,11.68
